createdAt,value
2024-02-13T00:08:44.540Z,18.8
2024-02-13T00:18:40.006Z,18.8
2024-02-13T00:28:40.146Z,18.8
2024-02-13T00:38:40.427Z,18.8
2024-02-13T00:48:40.656Z,18.8
2024-02-13T01:08:40.987Z,18.7
2024-02-13T01:18:41.204Z,18.7
2024-02-13T01:28:41.331Z,18.7
2024-02-13T01:38:41.610Z,18.7
2024-02-13T01:48:41.784Z,18.7
2024-02-13T01:58:41.937Z,18.7
2024-02-13T02:08:42.190Z,18.7
2024-02-13T02:18:42.580Z,18.7
2024-02-13T02:28:42.586Z,18.7
2024-02-13T02:38:42.802Z,18.7
2024-02-13T02:48:43.024Z,18.7
2024-02-13T02:58:43.175Z,18.7
2024-02-13T03:08:43.377Z,18.7
2024-02-13T03:18:43.595Z,18.7
2024-02-13T03:28:43.780Z,18.7
2024-02-13T03:38:43.962Z,18.7
2024-02-13T03:48:44.272Z,18.7
2024-02-13T03:58:44.324Z,18.7
2024-02-13T04:08:44.563Z,18.7
2024-02-13T04:18:44.769Z,18.7
2024-02-13T04:28:44.928Z,18.7
2024-02-13T04:38:45.205Z,18.7
2024-02-13T04:48:45.379Z,18.7
2024-02-13T04:58:45.518Z,18.7
2024-02-13T05:08:45.742Z,18.7
2024-02-13T05:18:45.967Z,18.7
2024-02-13T05:28:46.150Z,18.7
2024-02-13T05:38:46.436Z,18.7
2024-02-13T05:48:46.567Z,18.6
2024-02-13T06:08:47.001Z,18.7
2024-02-13T06:28:47.324Z,18.7
2024-02-13T07:18:48.368Z,18.7
2024-02-13T07:38:48.788Z,18.8
2024-02-13T07:58:49.118Z,18.9
2024-02-13T08:18:49.611Z,19
2024-02-13T08:48:50.333Z,19.6
2024-02-13T08:58:50.329Z,19.9
2024-02-13T09:08:50.560Z,20.2
2024-02-13T09:18:50.837Z,20.4
2024-02-13T09:28:50.923Z,20.6
2024-02-13T09:38:51.119Z,20.7
2024-02-13T09:48:51.389Z,20.9
2024-02-13T09:58:51.532Z,21.1
2024-02-13T10:08:51.762Z,21.2
2024-02-13T13:18:55.691Z,20.5
2024-02-13T14:38:57.184Z,20.3
2024-02-13T15:58:58.672Z,20.2
2024-02-13T16:08:58.883Z,20.1
2024-02-13T16:28:59.345Z,20
2024-02-13T16:38:59.522Z,20
2024-02-13T16:48:59.772Z,20
2024-02-13T17:09:00.109Z,19.9
2024-02-13T17:19:00.518Z,19.9
2024-02-13T17:29:00.482Z,19.9
2024-02-13T17:39:00.702Z,19.9
2024-02-13T17:49:00.923Z,19.8
2024-02-13T17:59:01.117Z,19.8
2024-02-13T18:09:01.295Z,19.8
2024-02-13T18:19:01.598Z,19.8
2024-02-13T18:29:01.656Z,19.7
2024-02-13T18:39:01.973Z,19.7
2024-02-13T18:49:02.206Z,19.7
2024-02-13T18:59:02.256Z,19.7
2024-02-13T19:09:02.548Z,19.7
2024-02-13T19:19:02.704Z,19.6
2024-02-13T19:29:02.859Z,19.6
2024-02-13T19:39:03.137Z,19.6
